Weather reports worldwide

Advertisment
Kew Gardens, United Kingdom (99095): temperature & dewpoint: 18.05.2018 07:00:00 - 24.05.2018 07:00:00 (BST)Kew Gardens, United Kingdom (99095): temperature -20cm & temperature -100cm: 18.05.2018 07:00:00 - 24.05.2018 07:00:00 (BST)Kew Gardens, United Kingdom (99095): wind speed: 18.05.2018 07:00:00 - 24.05.2018 07:00:00 (BST)Kew Gardens, United Kingdom (99095): wind direction: 18.05.2018 07:00:00 - 24.05.2018 07:00:00 (BST)Kew Gardens, United Kingdom (99095): sunshine duration: 18.05.2018 07:00:00 - 24.05.2018 07:00:00 (BST)Kew Gardens, United Kingdom (99095): precipitation: 18.05.2018 07:00:00 - 24.05.2018 07:00:00 (BST)
Date & Time tt [°C] td [°C] tt -20cm [°C] tt -100cm [°C] ff [km/h] ff [kn] dd sd [min] rr [mm]
24.05.2018 07:00:00 10,8 9,9 - - 4 2 NE - -
24.05.2018 06:00:00 10,7 9,8 - - 8 4 NNE - 0,6
24.05.2018 05:00:00 11,0 10,2 - - 8 4 NNE - 2,2
24.05.2018 04:00:00 10,9 10,3 - - 5 3 NE - 10,0
24.05.2018 03:00:00 11,0 9,8 - - 8 4 NE - 0,6
24.05.2018 02:00:00 11,2 9,7 - - 5 3 NNE - 0,8
24.05.2018 01:00:00 11,8 8,7 - - 8 4 NE - 0,0
24.05.2018 00:00:00 11,9 8,9 - - 11 6 NNE - 0,0
23.05.2018 23:00:00 12,2 9,1 - - 9 5 NNE - 0,0
23.05.2018 22:00:00 12,5 9,3 - - 8 4 N - 0,0
23.05.2018 21:00:00 13,3 9,5 - - 9 5 N - 0,0
23.05.2018 20:00:00 14,6 10,1 - - 9 5 N - 0,0
23.05.2018 19:00:00 16,1 10,7 - - 9 5 N - 0,0
23.05.2018 18:00:00 17,0 10,8 - - 9 5 N - 0,0
23.05.2018 17:00:00 17,3 11,0 - - 9 5 N - 0,0
23.05.2018 16:00:00 18,4 11,1 - - 9 5 NNE - 0,0
23.05.2018 15:00:00 18,0 11,1 - - - - - - 0,0
23.05.2018 14:00:00 16,7 10,9 - - - - - - 0,0
23.05.2018 13:00:00 16,0 10,0 - - - - - - 0,0
23.05.2018 12:00:00 15,2 9,7 - - - - - - 0,0
23.05.2018 11:00:00 14,4 9,7 - - - - - - 0,0
23.05.2018 10:00:00 13,5 9,6 16,2 14,7 0 0 N 0 0,0
23.05.2018 09:00:00 11,5 8,4 - - 0 0 N 0 0,0
23.05.2018 08:00:00 11,1 8,4 - - 0 0 N - 0,0
23.05.2018 07:00:00 10,8 8,2 - - 9 5 N - 0,0
23.05.2018 06:00:00 10,7 8,0 - - 8 4 NNE - 0,0
23.05.2018 05:00:00 10,7 8,1 - - 9 5 NNE - 0,0
23.05.2018 04:00:00 10,8 8,1 - - 8 4 NNE - 0,0
23.05.2018 03:00:00 11,1 8,4 - - 8 4 N - 0,0
23.05.2018 02:00:00 11,1 8,4 - - 9 5 N - 0,0
23.05.2018 01:00:00 11,2 8,5 - - 8 4 NNE - 0,0
23.05.2018 00:00:00 11,5 8,6 - - 8 4 NNE - 0,0
22.05.2018 23:00:00 11,6 8,6 - - 8 4 N - 0,0
22.05.2018 22:00:00 12,9 8,7 - - 9 5 NNE - 0,0
22.05.2018 21:00:00 14,8 8,7 - - 9 5 N - 0,0
22.05.2018 20:00:00 16,7 8,7 - - 11 6 N - 0,0
22.05.2018 19:00:00 18,6 9,0 - - 15 8 N - 0,0
22.05.2018 18:00:00 19,8 9,8 - - 13 7 N - 0,0
22.05.2018 17:00:00 21,4 10,5 - - 11 6 N - 0,0
22.05.2018 16:00:00 21,8 11,4 - - 11 6 NNE - 0,0
22.05.2018 15:00:00 21,7 11,5 - - 11 6 NE - 0,0
22.05.2018 14:00:00 20,9 11,7 - - 9 5 NNE - 0,0
22.05.2018 13:00:00 20,7 12,1 - - 9 5 N - 0,0
22.05.2018 12:00:00 18,8 10,8 - - 11 6 N - 0,0
22.05.2018 11:00:00 18,6 10,4 - - 9 5 N - 0,0
22.05.2018 10:00:00 17,6 9,8 15,9 14,7 9 5 N - 0,0
22.05.2018 09:00:00 15,5 8,6 - - 8 4 N - 0,0
22.05.2018 08:00:00 14,3 8,6 - - 9 5 N - 0,0
22.05.2018 07:00:00 13,0 9,0 - - 5 3 N - 0,0
22.05.2018 06:00:00 12,0 8,5 - - 4 2 NE - 0,0
22.05.2018 05:00:00 12,6 8,5 - - 4 2 NNW - 0,0
22.05.2018 04:00:00 13,4 9,5 - - 8 4 N - 0,0
22.05.2018 03:00:00 12,5 9,8 - - 2 1 N - 0,0
22.05.2018 02:00:00 13,8 10,0 - - 5 3 NNW - 0,0
22.05.2018 01:00:00 14,9 10,2 - - 4 2 N - 0,0
22.05.2018 00:00:00 16,9 10,2 - - 8 4 NNE - 0,0
21.05.2018 23:00:00 14,6 9,6 - - 2 1 WSW - 0,0
21.05.2018 22:00:00 16,6 10,2 - - 0 0 N - 0,0
21.05.2018 21:00:00 18,8 9,6 - - 2 1 ESE - 0,0
21.05.2018 20:00:00 20,9 10,3 - - 8 4 N - 0,0
21.05.2018 19:00:00 22,0 8,2 - - 5 3 NE - 0,0
21.05.2018 18:00:00 21,6 9,9 - - 8 4 NE - 0,0
21.05.2018 17:00:00 20,4 12,3 - - 8 4 NE - 0,0
21.05.2018 16:00:00 20,9 12,6 - - 9 5 E - 0,0
21.05.2018 15:00:00 20,7 10,9 - - 9 5 ENE - 0,0
21.05.2018 14:00:00 21,0 11,3 - - 8 4 ENE - 0,0
21.05.2018 13:00:00 21,4 11,0 - - 5 3 ENE - 0,0
21.05.2018 12:00:00 21,5 11,1 - - 4 2 N - 0,0
21.05.2018 11:00:00 20,0 11,1 - - 4 2 NNW - 0,0
21.05.2018 10:00:00 16,9 9,3 15,7 14,5 4 2 NNW - 0,0
21.05.2018 09:00:00 15,2 10,2 - - 4 2 NNE - 0,0
21.05.2018 08:00:00 12,6 8,8 - - 5 3 NE - 0,0
21.05.2018 07:00:00 11,3 8,8 - - 5 3 ENE - 0,0
21.05.2018 06:00:00 9,1 8,4 - - 4 2 NNE - 0,0
21.05.2018 05:00:00 7,6 7,3 - - 4 2 NE - 0,0
21.05.2018 04:00:00 7,5 7,2 - - 2 1 NE - 0,0
21.05.2018 03:00:00 7,9 7,4 - - 2 1 ESE - 0,0
21.05.2018 02:00:00 8,9 8,1 - - 2 1 E - 0,0
21.05.2018 01:00:00 9,5 8,4 - - 5 3 E - 0,0
21.05.2018 00:00:00 9,7 7,1 - - 4 2 E - 0,0
20.05.2018 23:00:00 11,9 7,2 - - 4 2 ESE - 0,0
20.05.2018 22:00:00 13,4 9,0 - - 8 4 E - 0,0
20.05.2018 21:00:00 15,5 9,3 - - 11 6 E - 0,0
20.05.2018 20:00:00 17,5 8,1 - - 9 5 ESE - 0,0
20.05.2018 19:00:00 19,7 7,9 - - 8 4 E - 0,0
20.05.2018 18:00:00 20,1 8,3 - - 8 4 E - 0,0
20.05.2018 17:00:00 21,2 9,7 - - 9 5 E - 0,0
20.05.2018 16:00:00 20,8 10,2 - - 9 5 E - 0,0
20.05.2018 15:00:00 19,9 8,8 - - 9 5 ESE - 0,0
20.05.2018 14:00:00 18,9 10,0 - - 8 4 E - 0,0
20.05.2018 13:00:00 19,1 9,4 - - 8 4 E - 0,0
20.05.2018 12:00:00 17,8 9,3 - - 8 4 E - 0,0
20.05.2018 11:00:00 17,0 8,9 - - 9 5 ESE - 0,0
20.05.2018 10:00:00 15,8 8,8 15,4 14,2 9 5 ESE - 0,0
20.05.2018 09:00:00 15,8 8,7 - - 5 3 ESE - 0,0
20.05.2018 08:00:00 12,7 10,4 - - 4 2 E - 0,0
20.05.2018 07:00:00 9,0 9,0 - - 2 1 NW - 0,0
20.05.2018 06:00:00 6,2 6,0 - - 2 1 SSW - 0,0
20.05.2018 05:00:00 6,4 6,1 - - 0 0 N - 0,0
20.05.2018 04:00:00 6,8 6,4 - - 0 0 N - 0,0
20.05.2018 03:00:00 7,3 6,8 - - 2 1 SSE - 0,0
20.05.2018 02:00:00 8,2 7,5 - - 2 1 SE - 0,0
20.05.2018 01:00:00 8,8 7,6 - - 4 2 S - 0,0
20.05.2018 00:00:00 10,5 7,9 - - 4 2 SE - 0,0
19.05.2018 23:00:00 11,5 7,8 - - 4 2 ESE - 0,0
19.05.2018 22:00:00 13,2 7,7 - - 5 3 E - 0,0
19.05.2018 21:00:00 15,0 7,8 - - 9 5 E - 0,0
19.05.2018 20:00:00 17,3 7,6 - - 11 6 E - 0,0
19.05.2018 19:00:00 19,6 8,0 - - 11 6 E - 0,0
19.05.2018 18:00:00 20,6 4,1 - - 5 3 NE - 0,0
19.05.2018 17:00:00 21,2 6,3 - - 5 3 E - 0,0
19.05.2018 16:00:00 20,6 4,2 - - 5 3 N - 0,0
19.05.2018 15:00:00 20,2 5,2 - - 5 3 NNE - 0,0
19.05.2018 14:00:00 19,6 6,7 - - 5 3 NNE - 0,0
19.05.2018 13:00:00 18,4 4,8 - - 9 5 E - 0,0
19.05.2018 12:00:00 17,9 7,1 - - 4 2 N - 0,0
19.05.2018 11:00:00 17,0 7,9 - - 5 3 N - 0,0
19.05.2018 10:00:00 16,3 7,5 15,0 14,2 4 2 ENE - 0,0
19.05.2018 09:00:00 14,7 9,2 - - 4 2 N - 0,0
19.05.2018 08:00:00 11,4 10,1 - - 2 1 SE - 0,0
19.05.2018 07:00:00 8,0 8,0 - - 2 1 S - 0,0
19.05.2018 06:00:00 5,4 5,2 - - 4 2 S - 0,0
19.05.2018 05:00:00 5,7 5,4 - - 4 2 SW - 0,0
19.05.2018 04:00:00 6,3 5,9 - - 4 2 SW - 0,0
19.05.2018 03:00:00 7,0 6,5 - - 2 1 SSW - 0,0
19.05.2018 02:00:00 7,3 6,7 - - 2 1 SSE - 0,0
19.05.2018 01:00:00 7,9 6,7 - - 0 0 N - 0,0
19.05.2018 00:00:00 9,4 7,2 - - 4 2 ESE - 0,0
18.05.2018 23:00:00 11,2 7,0 - - 4 2 ESE - 0,0
18.05.2018 22:00:00 13,4 4,7 - - 4 2 ENE - 0,0
18.05.2018 21:00:00 14,6 4,4 - - 4 2 NNE - 0,0
18.05.2018 20:00:00 15,7 4,1 - - 5 3 N - 0,0
18.05.2018 19:00:00 16,8 3,7 - - 8 4 N - 0,0
18.05.2018 18:00:00 17,0 3,3 - - 8 4 NNW - 0,0
18.05.2018 17:00:00 17,4 3,7 - - 5 3 N - 0,0
18.05.2018 16:00:00 17,7 5,7 - - 5 3 N - 0,0
18.05.2018 15:00:00 17,7 5,9 - - 8 4 NW - 0,0
18.05.2018 14:00:00 16,5 5,9 - - 8 4 NE - 0,0
18.05.2018 13:00:00 15,8 5,0 - - 8 4 NNW - 0,0
18.05.2018 12:00:00 13,9 4,7 - - 8 4 NE - 0,0
18.05.2018 11:00:00 12,6 5,2 - - 5 3 NW - 0,0
18.05.2018 10:00:00 11,4 4,8 14,7 14,2 8 4 NE - 0,0
18.05.2018 09:00:00 10,5 5,3 - - 5 3 N - 0,0
18.05.2018 08:00:00 9,5 5,1 - - 8 4 NNE - 0,0
18.05.2018 07:00:00 8,0 5,0 - - 4 2 N - 0,0

tt = temperature
td = dewpoint
tt -20cm = temperature -20cm
tt -100cm = temperature -100cm
ff = wind speed
dd = wind direction
sd = sunshine duration
rr = precipitation

Next stations